WetterOnline ( https://www.wetteronline.de )

Wetter aktuell Greifswald

Aktuelles Wetter: Greifswald (6m)

6-stündlich | Neueste Meldungen
Ortszeit Temperatur Wetter
Do, 25.04. 14:00 21.1° C leicht bewölkt
Do, 25.04. 8:00 13.6° C wolkig
Do, 25.04. 2:00 10.9° C wolkenlos
Mi, 24.04. 20:00 18.3° C leicht bewölkt
Mi, 24.04. 14:00 18.8° C leicht bewölkt
Mi, 24.04. 8:00 13.2° C bewölkt
Mi, 24.04. 2:00 14.8° C leicht bewölkt
Di, 23.04. 20:00 15.8° C bedeckt
Ortszeit Temperatur Wetter
Do, 25.04. 17:40 16.1° C fast wolkenlos
Do, 25.04. 17:30 16.0° C wolkenlos
Do, 25.04. 17:20 16.0° C leicht bewölkt
Do, 25.04. 17:10 16.1° C fast wolkenlos
Do, 25.04. 17:00 16.6° C fast wolkenlos
Do, 25.04. 16:50 16.6° C wolkenlos
Do, 25.04. 16:30 17.1° C fast wolkenlos
Do, 25.04. 16:00 18.7° C fast wolkenlos
Do, 25.04. 15:30 19.9° C fast wolkenlos
Do, 25.04. 15:00 21.9° C fast wolkenlos
Do, 25.04. 14:30 21.7° C leicht bewölkt
Ortszeit Relative Feuchte Sichtweite
Do, 25.04. 14:00 41% >70 km
Do, 25.04. 8:00 79% 20 km
Do, 25.04. 2:00 86% 17 km
Mi, 24.04. 20:00 56% 35 km
Mi, 24.04. 14:00 53% 35 km
Mi, 24.04. 8:00 66% 50 km
Mi, 24.04. 2:00 58% 30 km
Di, 23.04. 20:00 55% 30 km
Ortszeit Relative Feuchte Sichtweite
Do, 25.04. 17:40 73% -
Do, 25.04. 17:30 75% 15 km
Do, 25.04. 17:20 75% -
Do, 25.04. 17:10 76% -
Do, 25.04. 17:00 73% 15 km
Do, 25.04. 16:50 73% -
Do, 25.04. 16:30 73% 14 km
Do, 25.04. 16:00 66% 30 km
Do, 25.04. 15:30 59% 50 km
Do, 25.04. 15:00 44% >70 km
Do, 25.04. 14:30 46% 60 km
Ortszeit Niederschlagsmenge Niederschlagsart
Do, 25.04. 14:00 0.0 l/m2 in 6 Std. -
Do, 25.04. 8:00 0.1 l/m2 in 12 Std. Gewitter, Regen
Do, 25.04. 2:00 0.0 l/m2 in 6 Std. -
Mi, 24.04. 20:00 0.0 l/m2 in 12 Std. -
Mi, 24.04. 14:00 0.0 l/m2 in 6 Std. -
Mi, 24.04. 8:00 0.6 l/m2 in 12 Std. -
Mi, 24.04. 2:00 0.6 l/m2 in 6 Std. Schauer
Di, 23.04. 20:00 0.1 l/m2 in 12 Std. Schauer
Ortszeit Niederschlagsmenge Niederschlagsart
Do, 25.04. 17:40 keine Meldung -
Do, 25.04. 17:30 0.0 l/m2 in 1 Std. -
Do, 25.04. 17:20 keine Meldung -
Do, 25.04. 17:10 keine Meldung -
Do, 25.04. 17:00 0.0 l/m2 in 1 Std. -
Do, 25.04. 16:50 keine Meldung -
Do, 25.04. 16:30 0.0 l/m2 in 1 Std. -
Do, 25.04. 16:00 0.0 l/m2 in 1 Std. -
Do, 25.04. 15:30 0.0 l/m2 in 1 Std. -
Do, 25.04. 15:00 0.0 l/m2 in 1 Std. -
Do, 25.04. 14:30 0.0 l/m2 in 1 Std. -
Ortszeit Stärke Spitze Richtung
km/h Bft. km/h Grad Sektor
Do, 25.04. 14:00 7 2 22 210° SW
Do, 25.04. 8:00 6 1 19 120° SO
Do, 25.04. 2:00 13 3 20 100° O
Mi, 24.04. 20:00 17 3 41 100° O
Mi, 24.04. 14:00 14 3 40 130° SO
Mi, 24.04. 8:00 20 4 44 110° O
Mi, 24.04. 2:00 24 4 46 110° O
Di, 23.04. 20:00 20 4 65 100° O
Ortszeit Stärke Spitze Richtung
km/h Bft. km/h Grad Sektor
Do, 25.04. 17:40 28 4 - 50° NO
Do, 25.04. 17:30 28 4 37 60° NO
Do, 25.04. 17:20 28 4 - 60° NO
Do, 25.04. 17:10 26 4 - 60° NO
Do, 25.04. 17:00 22 4 29 50° NO
Do, 25.04. 16:50 22 4 - 50° NO
Do, 25.04. 16:30 24 4 30 60° NO
Do, 25.04. 16:00 20 4 26 50° NO
Do, 25.04. 15:30 17 3 22 50° NO
Do, 25.04. 15:00 11 2 25 240° SW
Do, 25.04. 14:30 13 3 22 250° W
Ortszeit Untergrenze Bedeckung Gattung
total tief tief mittel hoch
Do, 25.04. 14:00 9000 m 2/8 0/8 - - Ci
Do, 25.04. 8:00 1080 m 7/8 1/8 Sc As -
Do, 25.04. 2:00 - 0/8 0/8 - - -
Mi, 24.04. 20:00 9000 m 3/8 0/8 - - Ci
Mi, 24.04. 14:00 3300 m 6/8 6/8 - Ac -
Mi, 24.04. 8:00 1290 m 7/8 7/8 Sc - -
Mi, 24.04. 2:00 3300 m 5/8 5/8 - As -
Di, 23.04. 20:00 1800 m 8/8 7/8 Sc - -
Ortszeit Bedeckungsgrad in Achtel und Wolkenuntergrenze
Do, 25.04. 17:40 1(10500m)
Do, 25.04. 17:30 2(10500m)
Do, 25.04. 17:20 3(10500m)
Do, 25.04. 17:10 2(10500m)
Do, 25.04. 17:00 1(9000m)
Do, 25.04. 16:50 keine Wolken
Do, 25.04. 16:30 1(9000m)
Do, 25.04. 16:00 1(900m)
Do, 25.04. 15:30 1(9000m)
Do, 25.04. 15:00 1(9000m)
Do, 25.04. 14:30 2(9000m) 2(7800m)
Ortszeit Luftdruck NN (hPa) Tendenz (hPa in 3 Std.)
Do, 25.04. 14:00 1012 + 0,7
Do, 25.04. 8:00 1009 + 1,1
Do, 25.04. 2:00 1008 - 0,9
Mi, 24.04. 20:00 1008 - 0,1
Mi, 24.04. 14:00 1009 0,0
Mi, 24.04. 8:00 1009 + 0,2
Mi, 24.04. 2:00 1009 - 1,3
Di, 23.04. 20:00 1011 - 0,4
Ortszeit Luftdruck NN (hPa) Tendenz (hPa in 3 Std.)
Do, 25.04. 17:40 1013 keine Meldung
Do, 25.04. 17:30 1013 + 0,7
Do, 25.04. 17:20 1013 keine Meldung
Do, 25.04. 17:10 1013 keine Meldung
Do, 25.04. 17:00 1013 + 0,5
Do, 25.04. 16:50 1013 keine Meldung
Do, 25.04. 16:30 1013 + 0,7
Do, 25.04. 16:00 1013 + 0,7
Do, 25.04. 15:30 1012 + 0,7
Do, 25.04. 15:00 1012 + 0,4
Do, 25.04. 14:30 1012 + 0,6
Ortszeit Schneehöhe (cm)
Do, 25.04. 14:00 0
Do, 25.04. 8:00 0
Do, 25.04. 2:00 0
Mi, 24.04. 20:00 0
Mi, 24.04. 14:00 0
Mi, 24.04. 8:00 0
Mi, 24.04. 2:00 0
Di, 23.04. 20:00 0
Ortszeit Schneehöhe (cm)
Do, 25.04. 17:40 -
Do, 25.04. 17:30 -
Do, 25.04. 17:20 -
Do, 25.04. 17:10 -
Do, 25.04. 17:00 -
Do, 25.04. 16:50 -
Do, 25.04. 16:30 -
Do, 25.04. 16:00 -
Do, 25.04. 15:30 -
Do, 25.04. 15:00 -
Do, 25.04. 14:30 -
Link zu dieser Seite / Seite empfehlen

Das Wetter in ...